Alpine, TX (79832)

7:03 PM CDT on September 02, 2015 (GMT -0500)
APRSWXNET | | Change Station
CLOSE
Current Station
Personal Weather Station
Location: Alpine, TX
Elevation: 4599 ft
Nearby Weather Stations

Elev 4599 ft 30.37 °N, 103.65 °W | Updated 59 minutes ago

Clear
Clear
93 °F
Feels Like 89 °F
N
2
Wind Variable Wind from North
Gusts 8.0 mph

Today
High -- | Low -- °F
--% Chance of Precip.
Yesterday
High -- | Low -- °F
Precip. -- in
7:31 AM 8:16 PM
Waning Gibbous, 76% visible
Pressure 30.11 in
Visibility 10.0 miles
Clouds Clear
Heat Index 89 °F
Dew Point 45 °F
Humidity 19%
Rainfall in
Snow Depth Not available.
UV 1 out of 12
Pollen 9.90 out of 12
Air Quality Not available.
Flu Activity Not available.
METAR KE38 022355Z AUTO 12009KT 10SM CLR 32/08 A3011 RMK AO2 T03210077 10338 20303
Pressure 30.11 in
Visibility 10.0 miles
Clouds Clear
Heat Index 89 °F
Dew Point 45 °F
Humidity 19%
Rainfall in
Snow Depth Not available.
UV 1 out of 12
Pollen 9.90 out of 12
Air Quality Not available.
Flu Activity Not available.
METAR KE38 022355Z AUTO 12009KT 10SM CLR 32/08 A3011 RMK AO2 T03210077 10338 20303

10-Day Weather Forecast

×

Almanac

Astronomy

Sep. 02, 2015 Rise Set
Actual Time
Civil Twilight
Nautical Twilight
Astronomical Twilight
Moon
Length of Visible Light
Length of Day
Tomorrow will be .
, % of the Moon is Illuminated

Today's Extremes

State Highs State Lows

Community

WunderPhotos

Upload Photos

1,851,846 photos uploaded!

WunderBlogs® & News

Nearby

Air Quality

  Air Quality AQ Index Pollutant
Not available.

Snow Depth

Station Depth Elevation

Earthquake Activity

City Distance Mag. Time & Date
Minimum magnitude displayed is 2.5.

Coastal Water Temperatures

Place Temperature

Stations

Nearby Weather Stations

Station Location Temp. Windchill Dew Point Humidity Wind Precip. Elev Updated Type